createdAt,value
2023-05-03T00:01:48.960Z,60.66
2023-05-03T00:04:17.821Z,60.44
2023-05-03T00:06:45.430Z,60.86
2023-05-03T00:09:14.461Z,61.15
2023-05-03T00:11:43.667Z,60.50
2023-05-03T00:14:11.149Z,60.76
2023-05-03T00:16:38.685Z,60.43
2023-05-03T00:19:06.582Z,60.52
2023-05-03T00:21:35.445Z,60.76
2023-05-03T00:24:03.715Z,60.79
2023-05-03T00:26:31.237Z,61.25
2023-05-03T00:29:00.881Z,61.36
2023-05-03T00:31:28.429Z,61.14
2023-05-03T00:33:56.213Z,60.92
2023-05-03T00:36:23.651Z,60.37
2023-05-03T00:38:51.461Z,60.85
2023-05-03T00:41:19.240Z,61.01
2023-05-03T00:43:47.262Z,60.75
2023-05-03T00:46:17.636Z,60.92
2023-05-03T00:48:45.827Z,60.97
2023-05-03T00:51:14.379Z,60.96
2023-05-03T00:53:42.360Z,60.72
2023-05-03T00:56:11.198Z,60.66
2023-05-03T00:58:40.414Z,60.67
2023-05-03T01:01:08.714Z,60.59
2023-05-03T01:03:41.838Z,61.01
2023-05-03T01:06:16.172Z,60.66
2023-05-03T01:08:48.310Z,61.32
2023-05-03T01:11:20.798Z,61.32
2023-05-03T01:13:53.923Z,61.52
2023-05-03T01:16:26.575Z,61.27
2023-05-03T01:18:58.023Z,61.26
2023-05-03T01:21:26.663Z,61.19
2023-05-03T01:23:58.553Z,61.54
2023-05-03T01:26:28.511Z,61.71
2023-05-03T01:28:56.860Z,61.96
2023-05-03T01:31:29.372Z,61.67
2023-05-03T01:34:04.302Z,61.89
2023-05-03T01:36:33.671Z,62.06
2023-05-03T01:39:06.886Z,62.23
2023-05-03T01:41:38.920Z,62.19
2023-05-03T01:44:07.762Z,62.28
2023-05-03T01:46:35.277Z,62.29
2023-05-03T01:49:02.758Z,62.79
2023-05-03T01:51:30.212Z,62.77
2023-05-03T01:53:57.705Z,62.67
2023-05-03T01:56:26.278Z,62.73
2023-05-03T01:58:55.857Z,62.50
2023-05-03T02:01:23.951Z,62.80
2023-05-03T02:03:51.562Z,62.62
2023-05-03T02:06:19.151Z,62.44
2023-05-03T02:08:47.014Z,62.73
2023-05-03T02:11:14.498Z,63.15
2023-05-03T02:13:42.025Z,62.96
2023-05-03T02:16:11.316Z,63.04
2023-05-03T02:18:38.852Z,63.33
2023-05-03T02:21:06.796Z,63.47
2023-05-03T02:23:34.305Z,63.64
2023-05-03T02:26:01.824Z,63.50
2023-05-03T02:28:29.387Z,63.59
2023-05-03T02:30:57.027Z,63.61
2023-05-03T02:33:26.244Z,63.70
2023-05-03T02:35:54.065Z,63.98
2023-05-03T02:38:21.915Z,63.98
2023-05-03T02:40:49.420Z,63.98
2023-05-03T02:43:16.995Z,64.24
2023-05-03T02:45:44.636Z,64.16
2023-05-03T02:48:13.696Z,64.28
2023-05-03T02:50:43.658Z,64.74
2023-05-03T02:53:11.656Z,64.74
2023-05-03T02:55:39.175Z,64.61
2023-05-03T02:58:06.702Z,65.09
2023-05-03T03:00:34.504Z,64.92
2023-05-03T03:03:02.098Z,65.06
2023-05-03T03:05:29.868Z,64.74
2023-05-03T03:07:58.742Z,65.19
2023-05-03T03:10:27.252Z,65.04
2023-05-03T03:12:54.877Z,65.13
2023-05-03T03:15:32.336Z,65.06
2023-05-03T03:17:59.900Z,65.12
2023-05-03T03:20:29.045Z,65.25
2023-05-03T03:22:59.187Z,65.16
2023-05-03T03:25:27.534Z,65.32
2023-05-03T03:27:57.868Z,65.55
2023-05-03T03:30:25.687Z,65.51
2023-05-03T03:33:02.935Z,65.79
2023-05-03T03:35:38.021Z,66.48
2023-05-03T03:38:07.666Z,66.35
2023-05-03T03:40:39.468Z,66.17
2023-05-03T03:43:07.176Z,66.30
2023-05-03T03:45:36.257Z,66.70
2023-05-03T03:48:04.106Z,66.50
2023-05-03T03:50:32.282Z,66.79
2023-05-03T03:52:59.882Z,66.74
2023-05-03T03:55:28.824Z,67.15
2023-05-03T03:57:58.331Z,67.03
2023-05-03T04:00:27.688Z,66.97
2023-05-03T04:03:07.511Z,67.13
2023-05-03T04:05:36.436Z,67.11
2023-05-03T04:08:05.048Z,67.21
2023-05-03T04:10:36.103Z,67.78
2023-05-03T04:13:03.784Z,67.76
2023-05-03T04:15:31.288Z,67.68
2023-05-03T04:18:00.898Z,67.46
2023-05-03T04:20:29.311Z,67.61
2023-05-03T04:22:56.896Z,67.40
2023-05-03T04:25:28.825Z,67.83
2023-05-03T04:28:02.386Z,68.49
2023-05-03T04:30:31.906Z,68.33
2023-05-03T04:33:01.728Z,68.30
2023-05-03T04:35:31.828Z,68.43
2023-05-03T04:38:04.359Z,68.17
2023-05-03T04:40:34.666Z,67.82
2023-05-03T04:43:08.308Z,68.29
2023-05-03T04:45:39.496Z,68.18
2023-05-03T04:48:10.103Z,68.04
2023-05-03T04:50:37.726Z,67.96
2023-05-03T04:53:08.315Z,67.98
2023-05-03T04:55:40.079Z,69.14
2023-05-03T04:58:09.066Z,69.28
2023-05-03T05:00:38.174Z,69.26
2023-05-03T05:03:12.277Z,68.50
2023-05-03T05:05:40.329Z,68.71
2023-05-03T05:08:10.605Z,68.94
2023-05-03T05:10:43.403Z,68.90
2023-05-03T05:13:18.646Z,68.47
2023-05-03T05:15:46.198Z,68.90
2023-05-03T05:18:14.409Z,68.59
2023-05-03T05:20:42.628Z,68.13
2023-05-03T05:23:10.776Z,67.41
2023-05-03T05:25:41.989Z,67.55
2023-05-03T05:28:10.561Z,66.67
2023-05-03T05:30:39.850Z,66.85
2023-05-03T05:33:08.283Z,66.53
2023-05-03T05:35:36.346Z,66.80
2023-05-03T05:38:05.368Z,66.59
2023-05-03T05:40:34.207Z,66.33
2023-05-03T05:43:02.482Z,66.46
2023-05-03T05:45:34.453Z,66.48
2023-05-03T05:48:04.689Z,66.06
2023-05-03T05:50:32.891Z,66.64
2023-05-03T05:53:05.653Z,65.64
2023-05-03T05:55:37.652Z,65.05
2023-05-03T05:58:05.931Z,65.06
2023-05-03T06:00:40.192Z,64.91
2023-05-03T06:03:09.482Z,64.92
2023-05-03T06:05:37.394Z,64.51
2023-05-03T06:08:05.188Z,63.61
2023-05-03T06:10:33.136Z,63.59
2023-05-03T06:13:00.711Z,62.60
2023-05-03T06:15:29.285Z,62.04
2023-05-03T06:17:56.918Z,61.55
2023-05-03T06:20:26.311Z,61.45
2023-05-03T06:22:54.950Z,61.39
2023-05-03T06:25:22.547Z,60.30
2023-05-03T06:27:51.636Z,59.95
2023-05-03T06:30:23.584Z,59.17
2023-05-03T06:32:51.883Z,61.08
2023-05-03T06:35:21.722Z,60.25
2023-05-03T06:37:50.718Z,58.94
2023-05-03T06:40:18.680Z,59.03
2023-05-03T06:42:46.231Z,59.03
2023-05-03T06:45:19.606Z,58.78
2023-05-03T06:47:47.300Z,58.12
2023-05-03T06:50:14.883Z,57.96
2023-05-03T06:52:42.457Z,57.02
2023-05-03T06:55:11.348Z,55.90
2023-05-03T06:57:39.710Z,56.30
2023-05-03T07:00:08.873Z,55.23
2023-05-03T07:02:37.266Z,54.77
2023-05-03T07:05:05.602Z,54.89
2023-05-03T07:07:33.818Z,54.75
2023-05-03T07:10:01.519Z,53.90
2023-05-03T07:12:30.565Z,54.87
2023-05-03T07:14:58.433Z,54.09
2023-05-03T07:17:26.252Z,53.27
2023-05-03T07:19:54.196Z,53.53
2023-05-03T07:22:24.654Z,52.25
2023-05-03T07:24:52.740Z,51.56
2023-05-03T07:27:20.342Z,51.77
2023-05-03T07:29:49.169Z,50.97
2023-05-03T07:32:16.691Z,50.37
2023-05-03T07:34:44.297Z,50.92
2023-05-03T07:37:12.166Z,50.97
2023-05-03T07:39:40.098Z,50.90
2023-05-03T07:42:07.638Z,50.23
2023-05-03T07:44:35.147Z,50.37
2023-05-03T07:47:04.276Z,49.77
2023-05-03T07:49:35.505Z,49.67
2023-05-03T07:52:03.622Z,50.41
2023-05-03T07:54:31.210Z,49.51
2023-05-03T07:56:58.723Z,50.44
2023-05-03T07:59:26.687Z,50.19
2023-05-03T08:01:54.362Z,49.74
2023-05-03T08:04:24.335Z,50.02
2023-05-03T08:06:52.424Z,48.86
2023-05-03T08:09:20.662Z,47.40
2023-05-03T08:11:48.173Z,47.13
2023-05-03T08:14:15.661Z,47.23
2023-05-03T08:16:43.109Z,47.62
2023-05-03T08:19:10.590Z,48.04
2023-05-03T08:21:39.413Z,47.29
2023-05-03T08:24:08.334Z,47.13
2023-05-03T08:26:36.151Z,46.30
2023-05-03T08:29:03.888Z,46.07
2023-05-03T08:31:31.656Z,45.85
2023-05-03T08:33:59.299Z,45.10
2023-05-03T08:36:27.550Z,44.68
2023-05-03T08:38:56.517Z,46.02
2023-05-03T08:41:31.509Z,45.36
2023-05-03T08:44:00.074Z,44.59
2023-05-03T08:46:28.741Z,45.26
2023-05-03T08:48:56.697Z,44.19
2023-05-03T08:51:25.588Z,43.87
2023-05-03T08:53:53.427Z,44.67
2023-05-03T08:56:42.837Z,44.45
2023-05-03T08:59:11.677Z,44.33
2023-05-03T09:01:40.820Z,43.08
2023-05-03T09:04:09.252Z,43.58
2023-05-03T09:06:37.318Z,45.54
2023-05-03T09:09:07.356Z,45.14
2023-05-03T09:11:38.455Z,44.67
2023-05-03T09:14:10.331Z,43.30
2023-05-03T09:16:38.690Z,42.69
2023-05-03T09:19:09.368Z,43.43
2023-05-03T09:21:37.188Z,42.25
2023-05-03T09:24:14.238Z,41.75
2023-05-03T09:26:43.521Z,41.86
2023-05-03T09:29:11.465Z,41.91
2023-05-03T09:31:39.568Z,41.87
2023-05-03T09:34:22.936Z,40.17
2023-05-03T09:36:50.499Z,40.42
2023-05-03T09:39:18.447Z,41.94
2023-05-03T09:41:47.576Z,42.06
2023-05-03T09:44:15.074Z,41.33
2023-05-03T09:47:03.040Z,42.07
2023-05-03T09:49:31.544Z,41.19
2023-05-03T09:52:00.147Z,40.27
2023-05-03T09:54:27.741Z,41.04
2023-05-03T09:56:57.556Z,41.08
2023-05-03T09:59:25.478Z,40.87
2023-05-03T10:01:57.248Z,40.32
2023-05-03T10:04:26.357Z,40.83
2023-05-03T10:06:55.407Z,40.72
2023-05-03T10:09:27.124Z,39.55
2023-05-03T10:11:59.853Z,37.93
2023-05-03T10:14:27.392Z,37.33
2023-05-03T10:16:59.927Z,37.95
2023-05-03T10:19:32.274Z,37.79
2023-05-03T10:22:00.560Z,39.67
2023-05-03T10:24:28.096Z,38.78
2023-05-03T10:26:57.655Z,38.94
2023-05-03T10:29:51.877Z,38.60
2023-05-03T10:32:30.184Z,38.48
2023-05-03T10:34:57.765Z,39.09
2023-05-03T10:37:27.722Z,39.45
2023-05-03T10:39:57.500Z,38.15
2023-05-03T10:42:27.956Z,39.23
2023-05-03T10:44:56.030Z,38.85
2023-05-03T10:47:25.116Z,37.36
2023-05-03T10:50:25.118Z,37.01
2023-05-03T10:52:52.691Z,38.36
2023-05-03T10:55:21.912Z,37.55
2023-05-03T10:57:51.071Z,37.77
2023-05-03T11:00:22.105Z,37.47
2023-05-03T11:03:08.139Z,36.66
2023-05-03T11:05:37.158Z,37.50
2023-05-03T11:08:12.190Z,37.38
2023-05-03T11:10:39.859Z,37.30
2023-05-03T11:13:08.782Z,37.62
2023-05-03T11:15:36.368Z,36.85
2023-05-03T11:18:04.269Z,36.07
2023-05-03T11:20:31.775Z,35.46
2023-05-03T11:22:59.312Z,35.36
2023-05-03T11:25:27.059Z,34.96
2023-05-03T11:27:54.551Z,35.62
2023-05-03T11:30:23.478Z,35.02
2023-05-03T11:32:51.041Z,34.81
2023-05-03T11:35:19.352Z,34.03
2023-05-03T11:37:46.945Z,34.00
2023-05-03T11:40:18.164Z,33.55
2023-05-03T11:42:52.113Z,34.20
2023-05-03T11:45:22.966Z,34.16
2023-05-03T11:47:52.623Z,33.97
2023-05-03T11:50:20.370Z,33.83
2023-05-03T11:52:48.157Z,34.10
2023-05-03T11:55:17.856Z,34.17
2023-05-03T11:57:46.277Z,33.70
2023-05-03T12:00:17.436Z,34.46
2023-05-03T12:02:45.726Z,34.21
2023-05-03T12:05:14.994Z,33.88
2023-05-03T12:07:44.435Z,35.04
2023-05-03T12:10:23.146Z,34.30
2023-05-03T12:12:56.937Z,34.63
2023-05-03T12:15:33.931Z,34.41
2023-05-03T12:18:04.660Z,33.98
2023-05-03T12:21:28.421Z,33.97
2023-05-03T12:23:22.096Z,33.40
2023-05-03T12:25:52.817Z,33.04
2023-05-03T12:28:21.570Z,32.42
2023-05-03T12:30:51.435Z,33.02
2023-05-03T12:33:22.759Z,33.40
2023-05-03T12:35:54.290Z,33.55
2023-05-03T12:38:24.469Z,33.08
2023-05-03T12:40:53.182Z,33.47
2023-05-03T12:43:20.831Z,32.92
2023-05-03T12:46:04.022Z,32.93
2023-05-03T12:48:36.100Z,32.32
2023-05-03T12:53:38.898Z,34.02
2023-05-03T12:56:08.729Z,33.75
2023-05-03T12:59:04.627Z,33.85
2023-05-03T13:04:15.032Z,33.41
2023-05-03T13:06:46.732Z,33.03
2023-05-03T13:09:20.668Z,33.61
2023-05-03T13:11:50.338Z,32.58
2023-05-03T13:14:18.039Z,32.96
2023-05-03T13:16:46.379Z,33.35
2023-05-03T13:19:13.944Z,33.24
2023-05-03T13:21:41.448Z,33.35
2023-05-03T13:24:10.466Z,33.11
2023-05-03T13:26:38.032Z,32.63
2023-05-03T13:29:06.009Z,33.27
2023-05-03T13:31:33.621Z,32.83
2023-05-03T13:34:01.146Z,32.57
2023-05-03T13:36:29.476Z,33.19
2023-05-03T13:38:58.099Z,33.19
2023-05-03T13:41:26.915Z,33.29
2023-05-03T13:43:54.447Z,33.20
2023-05-03T13:46:23.177Z,32.93
2023-05-03T13:48:50.992Z,32.90
2023-05-03T13:51:18.570Z,32.62
2023-05-03T13:53:46.182Z,32.68
2023-05-03T13:56:13.637Z,33.90
2023-05-03T13:58:42.476Z,34.00
2023-05-03T14:01:09.953Z,33.50
2023-05-03T14:03:37.533Z,33.26
2023-05-03T14:06:05.363Z,33.82
2023-05-03T14:08:32.922Z,34.24
2023-05-03T14:11:00.428Z,34.18
2023-05-03T14:13:31.372Z,34.53
2023-05-03T14:16:06.846Z,33.83
2023-05-03T14:18:34.472Z,33.83
2023-05-03T14:21:01.985Z,33.77
2023-05-03T14:23:29.486Z,34.14
2023-05-03T14:25:57.355Z,34.66
2023-05-03T14:28:24.885Z,34.05
2023-05-03T14:30:52.701Z,33.94
2023-05-03T14:33:21.780Z,34.33
2023-05-03T14:35:49.668Z,34.10
2023-05-03T14:38:17.305Z,34.72
2023-05-03T14:40:44.861Z,34.16
2023-05-03T14:43:12.397Z,34.27
2023-05-03T14:45:40.186Z,34.09
2023-05-03T14:48:08.107Z,33.99
2023-05-03T14:50:37.115Z,34.10
2023-05-03T14:53:04.648Z,34.39
2023-05-03T14:55:32.369Z,34.42
2023-05-03T14:57:59.914Z,34.38
2023-05-03T15:00:29.186Z,34.50
2023-05-03T15:02:57.022Z,34.41
2023-05-03T15:05:24.639Z,34.51
2023-05-03T15:07:53.716Z,34.55
2023-05-03T15:10:21.570Z,34.57
2023-05-03T15:12:49.638Z,34.44
2023-05-03T15:15:17.176Z,35.14
2023-05-03T15:17:44.951Z,35.40
2023-05-03T15:20:15.295Z,35.48
2023-05-03T15:22:43.484Z,35.48
2023-05-03T15:25:12.483Z,35.35
2023-05-03T15:27:39.964Z,35.71
2023-05-03T15:30:12.276Z,35.58
2023-05-03T15:32:40.206Z,35.72
2023-05-03T15:35:08.206Z,35.77
2023-05-03T15:37:37.587Z,36.25
2023-05-03T15:40:06.409Z,36.32
2023-05-03T15:42:36.787Z,35.96
2023-05-03T15:45:05.886Z,35.89
2023-05-03T15:47:34.236Z,36.01
2023-05-03T15:50:02.300Z,36.05
2023-05-03T15:52:30.863Z,36.14
2023-05-03T15:54:58.554Z,36.67
2023-05-03T15:57:26.695Z,36.31
2023-05-03T15:59:55.874Z,36.50
2023-05-03T16:02:23.560Z,36.86
2023-05-03T16:04:51.245Z,36.59
2023-05-03T16:07:18.928Z,36.29
2023-05-03T16:09:46.712Z,36.16
2023-05-03T16:12:14.176Z,36.06
2023-05-03T16:14:41.918Z,36.57
2023-05-03T16:17:10.708Z,36.86
2023-05-03T16:19:38.289Z,37.23
2023-05-03T16:22:05.970Z,37.30
2023-05-03T16:24:34.841Z,37.18
2023-05-03T16:27:03.536Z,37.66
2023-05-03T16:29:31.708Z,37.60
2023-05-03T16:31:59.753Z,37.89
2023-05-03T16:34:28.611Z,38.13
2023-05-03T16:36:56.137Z,38.21
2023-05-03T16:39:23.859Z,38.50
2023-05-03T16:41:51.375Z,38.33
2023-05-03T16:44:19.391Z,38.54
2023-05-03T16:46:48.637Z,38.94
2023-05-03T16:49:16.140Z,38.88
2023-05-03T16:51:44.988Z,38.82
2023-05-03T16:54:16.244Z,38.63
2023-05-03T16:56:43.960Z,39.16
2023-05-03T16:59:11.682Z,39.42
2023-05-03T17:01:39.295Z,39.35
2023-05-03T17:04:07.296Z,39.54
2023-05-03T17:06:34.817Z,39.85
2023-05-03T17:09:04.286Z,40.46
2023-05-03T17:11:31.899Z,40.62
2023-05-03T17:14:00.749Z,40.79
2023-05-03T17:16:28.593Z,41.09
2023-05-03T17:18:56.285Z,41.13
2023-05-03T17:21:24.837Z,41.71
2023-05-03T17:23:52.406Z,41.85
2023-05-03T17:26:22.235Z,41.86
2023-05-03T17:28:49.730Z,42.00
2023-05-03T17:31:17.385Z,41.69
2023-05-03T17:33:44.912Z,42.21
2023-05-03T17:36:12.462Z,42.72
2023-05-03T17:38:39.952Z,42.69
2023-05-03T17:41:08.254Z,42.64
2023-05-03T17:43:37.269Z,43.12
2023-05-03T17:46:10.771Z,42.91
2023-05-03T17:48:39.497Z,43.23
2023-05-03T17:51:07.814Z,43.29
2023-05-03T17:53:35.517Z,43.37
2023-05-03T17:56:03.093Z,43.84
2023-05-03T17:58:30.633Z,43.96
2023-05-03T18:00:59.434Z,43.93
2023-05-03T18:03:27.484Z,44.41
2023-05-03T18:05:55.122Z,44.42
2023-05-03T18:08:22.808Z,44.79
2023-05-03T18:10:51.640Z,45.15
2023-05-03T18:13:20.275Z,45.42
2023-05-03T18:15:48.730Z,45.48
2023-05-03T18:18:17.563Z,45.74
2023-05-03T18:20:45.089Z,45.80
2023-05-03T18:23:12.730Z,45.57
2023-05-03T18:25:40.255Z,46.32
2023-05-03T18:28:08.435Z,46.30
2023-05-03T18:30:36.121Z,46.41
2023-05-03T18:33:03.985Z,46.44
2023-05-03T18:35:33.308Z,47.04
2023-05-03T18:38:00.878Z,47.07
2023-05-03T18:40:30.002Z,47.40
2023-05-03T18:42:57.780Z,47.22
2023-05-03T18:45:25.422Z,47.83
2023-05-03T18:47:52.977Z,48.03
2023-05-03T18:50:20.569Z,47.92
2023-05-03T18:52:50.789Z,48.40
2023-05-03T18:55:18.546Z,48.01
2023-05-03T18:57:46.026Z,48.90
2023-05-03T19:00:14.233Z,48.47
2023-05-03T19:02:41.769Z,49.00
2023-05-03T19:05:12.155Z,49.83
2023-05-03T19:07:42.978Z,49.33
2023-05-03T19:10:12.458Z,49.74
2023-05-03T19:12:40.733Z,49.57
2023-05-03T19:15:09.405Z,49.87
2023-05-03T19:17:37.051Z,49.41
2023-05-03T19:20:06.181Z,49.86
2023-05-03T19:22:34.144Z,49.77
2023-05-03T19:25:04.132Z,50.24
2023-05-03T19:27:33.892Z,50.32
2023-05-03T19:30:01.692Z,50.34
2023-05-03T19:32:29.828Z,50.56
2023-05-03T19:34:57.728Z,50.72
2023-05-03T19:37:25.921Z,50.94
2023-05-03T19:39:53.475Z,50.94
2023-05-03T19:42:20.979Z,50.63
2023-05-03T19:44:49.927Z,51.57
2023-05-03T19:47:17.514Z,52.12
2023-05-03T19:49:45.042Z,51.72
2023-05-03T19:52:12.604Z,52.06
2023-05-03T19:54:40.113Z,52.41
2023-05-03T19:57:08.206Z,52.21
2023-05-03T19:59:36.434Z,52.49
2023-05-03T20:02:05.340Z,52.59
2023-05-03T20:04:32.964Z,52.98
2023-05-03T20:07:00.907Z,53.68
2023-05-03T20:09:28.409Z,54.62
2023-05-03T20:11:58.675Z,54.31
2023-05-03T20:14:26.663Z,55.42
2023-05-03T20:16:54.275Z,55.53
2023-05-03T20:19:23.684Z,55.45
2023-05-03T20:21:51.363Z,55.05
2023-05-03T20:24:19.832Z,55.44
2023-05-03T20:26:47.321Z,55.86
2023-05-03T20:29:14.912Z,56.77
2023-05-03T20:31:42.499Z,56.76
2023-05-03T20:34:10.035Z,56.83
2023-05-03T20:36:38.901Z,56.53
2023-05-03T20:39:06.384Z,56.00
2023-05-03T20:41:33.843Z,56.60
2023-05-03T20:44:01.342Z,57.36
2023-05-03T20:46:28.815Z,57.26
2023-05-03T20:48:56.834Z,57.52
2023-05-03T20:51:24.374Z,57.43
2023-05-03T20:53:53.227Z,58.04
2023-05-03T20:56:21.177Z,56.99
2023-05-03T20:58:48.649Z,58.93
2023-05-03T21:01:16.182Z,58.59
2023-05-03T21:03:43.800Z,58.03
2023-05-03T21:06:11.306Z,57.99
2023-05-03T21:08:38.799Z,58.37
2023-05-03T21:11:08.354Z,58.76
2023-05-03T21:13:36.111Z,59.65
2023-05-03T21:16:03.892Z,59.69
2023-05-03T21:18:31.375Z,60.27
2023-05-03T21:20:58.903Z,60.96
2023-05-03T21:23:26.392Z,61.75
2023-05-03T21:25:55.943Z,60.54
2023-05-03T21:28:25.555Z,61.27
2023-05-03T21:30:55.027Z,61.33
2023-05-03T21:33:22.701Z,60.06
2023-05-03T21:35:50.405Z,60.82
2023-05-03T21:38:17.916Z,60.04
2023-05-03T21:40:46.982Z,60.42
2023-05-03T21:43:14.535Z,60.37
2023-05-03T21:45:43.966Z,62.94
2023-05-03T21:48:12.568Z,64.60
2023-05-03T21:50:40.249Z,65.22
2023-05-03T21:53:07.859Z,65.83
2023-05-03T21:55:35.392Z,65.90
2023-05-03T21:58:02.874Z,66.29
2023-05-03T22:00:31.655Z,65.75
2023-05-03T22:03:00.566Z,66.20
2023-05-03T22:05:28.226Z,66.24
2023-05-03T22:07:55.843Z,65.31
2023-05-03T22:10:23.391Z,66.10
2023-05-03T22:12:51.024Z,65.67
2023-05-03T22:15:18.759Z,65.33
2023-05-03T22:17:46.358Z,66.07
2023-05-03T22:20:15.276Z,66.13
2023-05-03T22:22:42.845Z,65.56
2023-05-03T22:25:10.641Z,66.21
2023-05-03T22:27:38.194Z,67.22
2023-05-03T22:30:07.065Z,67.45
2023-05-03T22:32:34.613Z,67.19
2023-05-03T22:35:02.260Z,67.79
2023-05-03T22:37:31.103Z,67.09
2023-05-03T22:39:58.641Z,67.12
2023-05-03T22:42:26.128Z,67.65
2023-05-03T22:44:55.320Z,67.53
2023-05-03T22:47:24.009Z,67.74
2023-05-03T22:49:51.914Z,68.63
2023-05-03T22:52:19.452Z,69.40
2023-05-03T22:54:48.261Z,68.37
2023-05-03T22:57:15.765Z,67.35
2023-05-03T22:59:45.549Z,66.43
2023-05-03T23:02:13.014Z,65.83
2023-05-03T23:04:40.521Z,66.35
2023-05-03T23:07:08.010Z,67.17
2023-05-03T23:09:35.487Z,68.30
2023-05-03T23:12:04.802Z,68.52
2023-05-03T23:14:32.316Z,69.28
2023-05-03T23:16:59.840Z,68.76
2023-05-03T23:19:27.413Z,69.18
2023-05-03T23:21:54.931Z,69.36
2023-05-03T23:24:22.994Z,68.67
2023-05-03T23:26:50.668Z,69.59
2023-05-03T23:29:19.822Z,69.16
2023-05-03T23:31:47.811Z,69.58
2023-05-03T23:34:15.824Z,69.73
2023-05-03T23:36:43.399Z,69.45
2023-05-03T23:39:10.874Z,69.46
2023-05-03T23:41:38.369Z,69.77
2023-05-03T23:44:06.133Z,69.67
2023-05-03T23:46:35.670Z,69.72
2023-05-03T23:49:03.346Z,70.22
2023-05-03T23:51:30.910Z,70.64
2023-05-03T23:53:58.367Z,70.67
2023-05-03T23:56:26.102Z,70.54
2023-05-03T23:58:53.809Z,70.72
